Terminal Aerodrome Forecast
Issued by NWS

Current Version | Previous Version | Graphics & Text | Print | Product List | Glossary On
Versions: 1 2 3 4 5 6 7 8 9 10 11 12 13 14 15 16 17 18 19 20 21 22 23 24 25 26 27 28 29 30 31 32
000
FTUS41 KRNK 261121
TAFLWB
TAF
KLWB 261121Z 2612/2712 00000KT P6SM SCT050
     FM261500 26010G20KT P6SM SCT060
     FM262000 27010KT P6SM VCTS BKN050CB
      TEMPO 2622/2701 3SM -TSRA OVC040CB
     FM270200 27007KT P6SM BKN080=

USA.gov is the U.S. government's official web portal to all federal, state and local government web resources and services.